sensor_id;sensor_type;location;lat;lon;timestamp;pressure;altitude;pressure_sealevel;temperature;humidity
22830;BME280;11581;51.250;6.778;2023-04-20T00:00:10;101503.28;;;10.49;32.90
22830;BME280;11581;51.250;6.778;2023-04-20T00:02:39;101546.75;;;10.81;32.83
22830;BME280;11581;51.250;6.778;2023-04-20T00:05:06;101603.31;;;11.16;32.82
22830;BME280;11581;51.250;6.778;2023-04-20T00:07:33;101514.91;;;10.48;32.70
22830;BME280;11581;51.250;6.778;2023-04-20T00:10:00;101602.22;;;11.19;32.82
22830;BME280;11581;51.250;6.778;2023-04-20T00:12:27;101569.78;;;11.03;32.79
22830;BME280;11581;51.250;6.778;2023-04-20T00:14:54;101587.88;;;11.20;33.08
22830;BME280;11581;51.250;6.778;2023-04-20T00:17:21;101561.78;;;11.03;32.94
22830;BME280;11581;51.250;6.778;2023-04-20T00:19:47;101592.09;;;11.22;32.40
22830;BME280;11581;51.250;6.778;2023-04-20T00:22:14;101581.41;;;11.22;32.55
22830;BME280;11581;51.250;6.778;2023-04-20T00:24:40;101547.31;;;11.05;32.57
22830;BME280;11581;51.250;6.778;2023-04-20T00:27:07;101560.06;;;11.22;32.68
22830;BME280;11581;51.250;6.778;2023-04-20T00:29:33;101499.41;;;10.83;32.48
22830;BME280;11581;51.250;6.778;2023-04-20T00:32:00;101547.66;;;11.12;32.38
22830;BME280;11581;51.250;6.778;2023-04-20T00:34:26;101552.19;;;11.21;32.40
22830;BME280;11581;51.250;6.778;2023-04-20T00:36:53;101505.91;;;10.90;32.22
22830;BME280;11581;51.250;6.778;2023-04-20T00:39:19;101551.63;;;11.17;32.42
22830;BME280;11581;51.250;6.778;2023-04-20T00:41:46;101542.75;;;11.17;32.67
22830;BME280;11581;51.250;6.778;2023-04-20T00:44:12;101549.09;;;11.16;32.50
22830;BME280;11581;51.250;6.778;2023-04-20T00:46:39;101549.22;;;11.14;32.52
22830;BME280;11581;51.250;6.778;2023-04-20T00:49:06;101550.19;;;11.13;32.45
22830;BME280;11581;51.250;6.778;2023-04-20T00:51:33;101533.19;;;11.14;32.36
22830;BME280;11581;51.250;6.778;2023-04-20T00:54:00;101454.41;;;10.69;32.40
22830;BME280;11581;51.250;6.778;2023-04-20T00:56:26;101524.19;;;11.15;32.30
22830;BME280;11581;51.250;6.778;2023-04-20T00:58:53;101475.41;;;10.83;32.28
22830;BME280;11581;51.250;6.778;2023-04-20T01:01:20;101521.66;;;11.14;32.28
22830;BME280;11581;51.250;6.778;2023-04-20T01:03:46;101451.00;;;10.67;32.28
22830;BME280;11581;51.250;6.778;2023-04-20T01:06:13;101521.09;;;11.10;32.28
22830;BME280;11581;51.250;6.778;2023-04-20T01:08:50;101512.63;;;11.05;32.44
22830;BME280;11581;51.250;6.778;2023-04-20T01:11:17;101512.75;;;11.04;32.22
22830;BME280;11581;51.250;6.778;2023-04-20T01:13:43;101391.25;;;10.29;32.16
22830;BME280;11581;51.250;6.778;2023-04-20T01:16:11;101381.97;;;10.23;32.40
22830;BME280;11581;51.250;6.778;2023-04-20T01:18:45;101447.25;;;10.49;32.63
22830;BME280;11581;51.250;6.778;2023-04-20T01:21:13;101503.94;;;10.83;32.32
22830;BME280;11581;51.250;6.778;2023-04-20T01:23:42;101508.81;;;10.78;32.38
22830;BME280;11581;51.250;6.778;2023-04-20T01:26:10;101433.72;;;10.41;32.54
22830;BME280;11581;51.250;6.778;2023-04-20T01:28:37;101501.00;;;10.65;32.58
22830;BME280;11581;51.250;6.778;2023-04-20T01:31:06;101489.88;;;10.60;32.57
22830;BME280;11581;51.250;6.778;2023-04-20T01:33:33;101444.34;;;10.32;32.56
22830;BME280;11581;51.250;6.778;2023-04-20T01:36:00;101392.38;;;9.95;32.46
22830;BME280;11581;51.250;6.778;2023-04-20T01:38:28;101493.81;;;10.45;32.66
22830;BME280;11581;51.250;6.778;2023-04-20T01:41:00;101491.69;;;10.39;32.97
22830;BME280;11581;51.250;6.778;2023-04-20T01:43:27;101486.75;;;10.35;33.00
22830;BME280;11581;51.250;6.778;2023-04-20T01:45:53;101493.41;;;10.29;33.26
22830;BME280;11581;51.250;6.778;2023-04-20T01:48:19;101338.75;;;9.36;33.12
22830;BME280;11581;51.250;6.778;2023-04-20T01:50:50;101443.13;;;9.93;33.78
22830;BME280;11581;51.250;6.778;2023-04-20T01:53:17;101490.06;;;10.16;33.26
22830;BME280;11581;51.250;6.778;2023-04-20T01:55:46;101344.81;;;9.16;33.30
22830;BME280;11581;51.250;6.778;2023-04-20T01:58:13;101479.09;;;10.10;33.56
22830;BME280;11581;51.250;6.778;2023-04-20T02:00:39;101473.16;;;10.06;33.56
22830;BME280;11581;51.250;6.778;2023-04-20T02:03:06;101350.81;;;9.29;33.53
22830;BME280;11581;51.250;6.778;2023-04-20T02:05:32;101418.75;;;9.66;33.84
22830;BME280;11581;51.250;6.778;2023-04-20T02:07:58;101306.63;;;9.06;33.97
22830;BME280;11581;51.250;6.778;2023-04-20T02:10:25;101368.97;;;9.46;33.73
22830;BME280;11581;51.250;6.778;2023-04-20T02:12:51;101344.06;;;9.36;33.85
22830;BME280;11581;51.250;6.778;2023-04-20T02:15:18;101449.38;;;10.03;33.89
22830;BME280;11581;51.250;6.778;2023-04-20T02:17:44;101429.34;;;9.88;33.53
22830;BME280;11581;51.250;6.778;2023-04-20T02:20:11;101450.97;;;10.06;33.89
22830;BME280;11581;51.250;6.778;2023-04-20T02:22:37;101300.44;;;9.17;33.85
22830;BME280;11581;51.250;6.778;2023-04-20T02:25:05;101339.53;;;9.48;34.03
22830;BME280;11581;51.250;6.778;2023-04-20T02:27:32;101302.91;;;9.29;34.03
22830;BME280;11581;51.250;6.778;2023-04-20T02:29:59;101350.22;;;9.68;33.97
22830;BME280;11581;51.250;6.778;2023-04-20T02:32:25;101317.63;;;9.44;34.09
22830;BME280;11581;51.250;6.778;2023-04-20T02:34:52;101337.56;;;9.61;34.13
22830;BME280;11581;51.250;6.778;2023-04-20T02:37:18;101423.69;;;10.13;34.30
22830;BME280;11581;51.250;6.778;2023-04-20T02:39:45;101420.06;;;10.14;34.34
22830;BME280;11581;51.250;6.778;2023-04-20T02:42:11;101359.34;;;9.86;34.40
22830;BME280;11581;51.250;6.778;2023-04-20T02:44:39;101411.44;;;10.22;34.33
22830;BME280;11581;51.250;6.778;2023-04-20T02:47:06;101379.78;;;9.97;34.40
22830;BME280;11581;51.250;6.778;2023-04-20T02:49:33;101361.56;;;10.02;34.46
22830;BME280;11581;51.250;6.778;2023-04-20T02:52:00;101403.31;;;10.23;34.43
22830;BME280;11581;51.250;6.778;2023-04-20T02:54:26;101413.16;;;10.32;34.66
22830;BME280;11581;51.250;6.778;2023-04-20T02:56:53;101400.56;;;10.34;34.60
22830;BME280;11581;51.250;6.778;2023-04-20T02:59:19;101398.63;;;10.36;34.48
22830;BME280;11581;51.250;6.778;2023-04-20T03:01:51;101390.34;;;10.39;34.79
22830;BME280;11581;51.250;6.778;2023-04-20T03:04:20;101372.22;;;10.33;34.79
22830;BME280;11581;51.250;6.778;2023-04-20T03:06:54;101383.78;;;10.43;34.62
22830;BME280;11581;51.250;6.778;2023-04-20T03:09:26;101383.53;;;10.46;35.01
22830;BME280;11581;51.250;6.778;2023-04-20T03:12:04;101386.88;;;10.48;35.00
22830;BME280;11581;51.250;6.778;2023-04-20T03:14:47;101358.50;;;10.38;35.06
22830;BME280;11581;51.250;6.778;2023-04-20T03:17:15;101365.66;;;10.47;35.21
22830;BME280;11581;51.250;6.778;2023-04-20T03:19:41;101388.75;;;10.57;35.26
22830;BME280;11581;51.250;6.778;2023-04-20T03:22:08;101382.44;;;10.58;35.29
22830;BME280;11581;51.250;6.778;2023-04-20T03:24:35;101395.50;;;10.61;35.24
22830;BME280;11581;51.250;6.778;2023-04-20T03:27:11;101374.72;;;10.55;35.84
22830;BME280;11581;51.250;6.778;2023-04-20T03:29:52;101370.34;;;10.54;35.74
22830;BME280;11581;51.250;6.778;2023-04-20T03:32:19;101372.97;;;10.65;35.85
22830;BME280;11581;51.250;6.778;2023-04-20T03:34:45;101372.69;;;10.68;35.87
22830;BME280;11581;51.250;6.778;2023-04-20T03:37:12;101374.38;;;10.69;35.89
22830;BME280;11581;51.250;6.778;2023-04-20T03:39:38;101332.44;;;10.51;35.83
22830;BME280;11581;51.250;6.778;2023-04-20T03:42:05;101367.06;;;10.71;35.86
22830;BME280;11581;51.250;6.778;2023-04-20T03:44:31;101336.41;;;10.56;35.71
22830;BME280;11581;51.250;6.778;2023-04-20T03:46:58;101325.13;;;10.43;35.97
22830;BME280;11581;51.250;6.778;2023-04-20T03:49:24;101360.75;;;10.72;36.01
22830;BME280;11581;51.250;6.778;2023-04-20T03:51:51;101354.44;;;10.73;36.34
22830;BME280;11581;51.250;6.778;2023-04-20T03:54:17;101353.44;;;10.74;36.22
22830;BME280;11581;51.250;6.778;2023-04-20T03:56:44;101268.03;;;10.25;36.08
22830;BME280;11581;51.250;6.778;2023-04-20T03:59:11;101281.56;;;10.33;36.18
22830;BME280;11581;51.250;6.778;2023-04-20T04:01:41;101352.50;;;10.75;35.98
22830;BME280;11581;51.250;6.778;2023-04-20T04:04:08;101352.50;;;10.75;36.22
22830;BME280;11581;51.250;6.778;2023-04-20T04:06:34;101342.78;;;10.74;36.05
22830;BME280;11581;51.250;6.778;2023-04-20T04:09:01;101276.50;;;10.30;36.14
22830;BME280;11581;51.250;6.778;2023-04-20T04:11:28;101318.72;;;10.55;36.00
22830;BME280;11581;51.250;6.778;2023-04-20T04:13:59;101323.22;;;10.64;36.58
22830;BME280;11581;51.250;6.778;2023-04-20T04:16:27;101342.50;;;10.77;36.36
22830;BME280;11581;51.250;6.778;2023-04-20T04:18:53;101344.34;;;10.77;36.31
22830;BME280;11581;51.250;6.778;2023-04-20T04:21:20;101332.84;;;10.76;36.46
22830;BME280;11581;51.250;6.778;2023-04-20T04:23:53;101342.50;;;10.77;36.62
22830;BME280;11581;51.250;6.778;2023-04-20T04:26:40;101290.59;;;10.51;36.86
22830;BME280;11581;51.250;6.778;2023-04-20T04:29:06;101323.16;;;10.75;36.74
22830;BME280;11581;51.250;6.778;2023-04-20T04:31:34;101304.41;;;10.56;36.86
22830;BME280;11581;51.250;6.778;2023-04-20T04:34:08;101301.72;;;10.56;36.73
22830;BME280;11581;51.250;6.778;2023-04-20T04:36:42;101317.47;;;10.59;37.14
22830;BME280;11581;51.250;6.778;2023-04-20T04:39:14;101332.53;;;10.70;37.52
22830;BME280;11581;51.250;6.778;2023-04-20T04:41:47;101319.34;;;10.68;37.75
22830;BME280;11581;51.250;6.778;2023-04-20T04:44:23;101301.13;;;10.53;37.97
22830;BME280;11581;51.250;6.778;2023-04-20T04:46:50;101326.75;;;10.65;38.70
22830;BME280;11581;51.250;6.778;2023-04-20T04:49:17;101306.94;;;10.58;38.93
22830;BME280;11581;51.250;6.778;2023-04-20T04:51:44;101328.56;;;10.64;39.48
22830;BME280;11581;51.250;6.778;2023-04-20T04:54:11;101322.28;;;10.65;39.94
22830;BME280;11581;51.250;6.778;2023-04-20T04:56:37;101327.47;;;10.67;40.30
22830;BME280;11581;51.250;6.778;2023-04-20T04:59:04;101321.88;;;10.70;40.45
22830;BME280;11581;51.250;6.778;2023-04-20T05:01:30;101241.38;;;10.25;40.88
22830;BME280;11581;51.250;6.778;2023-04-20T05:03:57;101329.44;;;10.74;41.17
22830;BME280;11581;51.250;6.778;2023-04-20T05:06:23;101279.06;;;10.41;41.12
22830;BME280;11581;51.250;6.778;2023-04-20T05:08:50;101292.47;;;10.60;41.33
22830;BME280;11581;51.250;6.778;2023-04-20T05:11:16;101295.72;;;10.64;41.49
22830;BME280;11581;51.250;6.778;2023-04-20T05:13:43;101310.06;;;10.72;41.69
22830;BME280;11581;51.250;6.778;2023-04-20T05:16:10;101308.09;;;10.74;41.86
22830;BME280;11581;51.250;6.778;2023-04-20T05:18:36;101325.28;;;10.81;41.96
22830;BME280;11581;51.250;6.778;2023-04-20T05:21:03;101232.56;;;10.25;42.23
22830;BME280;11581;51.250;6.778;2023-04-20T05:23:29;101328.63;;;10.83;42.38
22830;BME280;11581;51.250;6.778;2023-04-20T05:25:56;101321.34;;;10.85;42.49
22830;BME280;11581;51.250;6.778;2023-04-20T05:28:22;101330.91;;;10.88;42.38
22830;BME280;11581;51.250;6.778;2023-04-20T05:30:48;101337.91;;;10.89;42.54
22830;BME280;11581;51.250;6.778;2023-04-20T05:33:15;101331.63;;;10.90;42.49
22830;BME280;11581;51.250;6.778;2023-04-20T05:35:41;101338.50;;;10.92;42.94
22830;BME280;11581;51.250;6.778;2023-04-20T05:38:08;101330.50;;;10.92;42.81
22830;BME280;11581;51.250;6.778;2023-04-20T05:40:34;101307.00;;;10.77;43.15
22830;BME280;11581;51.250;6.778;2023-04-20T05:43:01;101276.19;;;10.63;42.94
22830;BME280;11581;51.250;6.778;2023-04-20T05:45:27;101304.50;;;10.85;42.78
22830;BME280;11581;51.250;6.778;2023-04-20T05:47:55;101319.44;;;11.06;43.11
22830;BME280;11581;51.250;6.778;2023-04-20T05:50:22;101334.09;;;11.12;43.32
22830;BME280;11581;51.250;6.778;2023-04-20T05:52:50;101332.38;;;11.11;43.22
22830;BME280;11581;51.250;6.778;2023-04-20T05:55:17;101330.44;;;11.22;42.88
22830;BME280;11581;51.250;6.778;2023-04-20T05:57:43;101286.84;;;11.03;43.05
22830;BME280;11581;51.250;6.778;2023-04-20T06:00:12;101321.47;;;11.23;43.21
22830;BME280;11581;51.250;6.778;2023-04-20T06:02:40;101335.81;;;11.32;42.95
22830;BME280;11581;51.250;6.778;2023-04-20T06:05:07;101288.84;;;11.10;43.10
22830;BME280;11581;51.250;6.778;2023-04-20T06:07:34;101326.53;;;11.36;42.95
22830;BME280;11581;51.250;6.778;2023-04-20T06:10:02;101280.56;;;11.13;42.95
22830;BME280;11581;51.250;6.778;2023-04-20T06:12:29;101315.69;;;11.38;42.84
22830;BME280;11581;51.250;6.778;2023-04-20T06:14:56;101257.03;;;10.98;43.24
22830;BME280;11581;51.250;6.778;2023-04-20T06:17:23;101322.84;;;11.37;43.70
22830;BME280;11581;51.250;6.778;2023-04-20T06:19:50;101318.22;;;11.39;44.19
22830;BME280;11581;51.250;6.778;2023-04-20T06:22:17;101318.81;;;11.43;43.98
22830;BME280;11581;51.250;6.778;2023-04-20T06:24:43;101329.91;;;11.48;43.75
22830;BME280;11581;51.250;6.778;2023-04-20T06:27:11;101322.47;;;11.51;43.62
22830;BME280;11581;51.250;6.778;2023-04-20T06:29:37;101312.06;;;11.48;43.63
22830;BME280;11581;51.250;6.778;2023-04-20T06:32:04;101310.22;;;11.49;43.43
22830;BME280;11581;51.250;6.778;2023-04-20T06:34:30;101306.56;;;11.59;43.51
22830;BME280;11581;51.250;6.778;2023-04-20T06:36:57;101336.69;;;11.61;43.48
22830;BME280;11581;51.250;6.778;2023-04-20T06:39:23;101319.69;;;11.62;43.55
22830;BME280;11581;51.250;6.778;2023-04-20T06:41:50;101274.81;;;11.47;43.33
22830;BME280;11581;51.250;6.778;2023-04-20T06:44:20;101308.84;;;11.64;43.62
22830;BME280;11581;51.250;6.778;2023-04-20T06:46:46;101141.16;;;10.62;43.70
22830;BME280;11581;51.250;6.778;2023-04-20T06:49:12;101277.31;;;11.38;43.46
22830;BME280;11581;51.250;6.778;2023-04-20T06:51:39;101290.69;;;11.48;43.79
22830;BME280;11581;51.250;6.778;2023-04-20T06:54:05;101222.91;;;11.11;44.11
22830;BME280;11581;51.250;6.778;2023-04-20T06:56:32;101312.25;;;11.66;43.81
22830;BME280;11581;51.250;6.778;2023-04-20T06:58:58;101306.31;;;11.62;44.04
22830;BME280;11581;51.250;6.778;2023-04-20T07:01:25;101329.63;;;11.60;44.15
22830;BME280;11581;51.250;6.778;2023-04-20T07:03:51;101269.88;;;11.23;44.15
22830;BME280;11581;51.250;6.778;2023-04-20T07:06:18;101314.16;;;11.45;44.48
22830;BME280;11581;51.250;6.778;2023-04-20T07:08:44;101332.84;;;11.45;45.24
22830;BME280;11581;51.250;6.778;2023-04-20T07:11:11;101317.09;;;11.42;45.03
22830;BME280;11581;51.250;6.778;2023-04-20T07:13:37;101305.44;;;11.33;45.09
22830;BME280;11581;51.250;6.778;2023-04-20T07:16:04;101268.56;;;11.08;45.35
22830;BME280;11581;51.250;6.778;2023-04-20T07:18:30;101302.50;;;11.26;45.40
22830;BME280;11581;51.250;6.778;2023-04-20T07:20:57;101293.59;;;11.16;45.44
22830;BME280;11581;51.250;6.778;2023-04-20T07:23:23;101324.44;;;11.40;45.61
22830;BME280;11581;51.250;6.778;2023-04-20T07:25:51;101287.97;;;11.19;45.66
22830;BME280;11581;51.250;6.778;2023-04-20T07:28:17;101300.09;;;11.23;45.84
22830;BME280;11581;51.250;6.778;2023-04-20T07:30:43;101313.84;;;11.28;45.83
22830;BME280;11581;51.250;6.778;2023-04-20T07:33:10;101309.50;;;11.27;45.99
22830;BME280;11581;51.250;6.778;2023-04-20T07:35:36;101315.13;;;11.24;46.18
22830;BME280;11581;51.250;6.778;2023-04-20T07:38:03;101284.03;;;11.04;46.15
22830;BME280;11581;51.250;6.778;2023-04-20T07:40:29;101315.53;;;11.20;46.28
22830;BME280;11581;51.250;6.778;2023-04-20T07:42:56;101312.88;;;11.20;46.45
22830;BME280;11581;51.250;6.778;2023-04-20T07:45:22;101328.16;;;11.18;46.53
22830;BME280;11581;51.250;6.778;2023-04-20T07:47:49;101334.34;;;11.18;46.68
22830;BME280;11581;51.250;6.778;2023-04-20T07:50:18;101331.69;;;11.18;46.77
22830;BME280;11581;51.250;6.778;2023-04-20T07:52:44;101232.53;;;10.64;46.82
22830;BME280;11581;51.250;6.778;2023-04-20T07:55:11;101321.72;;;11.20;46.84
22830;BME280;11581;51.250;6.778;2023-04-20T07:57:38;101329.59;;;11.22;47.11
22830;BME280;11581;51.250;6.778;2023-04-20T08:00:07;101317.78;;;11.24;46.99
22830;BME280;11581;51.250;6.778;2023-04-20T08:02:39;101300.91;;;11.14;46.92
22830;BME280;11581;51.250;6.778;2023-04-20T08:05:06;101233.97;;;10.78;46.84
22830;BME280;11581;51.250;6.778;2023-04-20T08:07:34;101242.44;;;10.83;47.01
22830;BME280;11581;51.250;6.778;2023-04-20T08:10:01;101278.69;;;11.04;47.18
22830;BME280;11581;51.250;6.778;2023-04-20T08:12:27;101292.22;;;11.22;47.04
22830;BME280;11581;51.250;6.778;2023-04-20T08:14:53;101302.34;;;11.38;46.77
22830;BME280;11581;51.250;6.778;2023-04-20T08:17:24;101313.59;;;11.41;46.86
22830;BME280;11581;51.250;6.778;2023-04-20T08:19:50;101312.47;;;11.44;47.10
22830;BME280;11581;51.250;6.778;2023-04-20T08:22:17;101304.06;;;11.48;46.90
22830;BME280;11581;51.250;6.778;2023-04-20T08:24:43;101274.25;;;11.33;46.98
22830;BME280;11581;51.250;6.778;2023-04-20T08:27:10;101298.28;;;11.53;46.78
22830;BME280;11581;51.250;6.778;2023-04-20T08:29:37;101300.81;;;11.54;46.85
22830;BME280;11581;51.250;6.778;2023-04-20T08:32:04;101290.81;;;11.56;46.79
22830;BME280;11581;51.250;6.778;2023-04-20T08:34:33;101286.31;;;11.57;46.88
22830;BME280;11581;51.250;6.778;2023-04-20T08:37:00;101270.72;;;11.52;46.96
22830;BME280;11581;51.250;6.778;2023-04-20T08:39:26;101293.81;;;11.63;46.93
22830;BME280;11581;51.250;6.778;2023-04-20T08:41:55;101241.91;;;11.37;46.56
22830;BME280;11581;51.250;6.778;2023-04-20T08:44:24;101254.00;;;11.41;47.52
22830;BME280;11581;51.250;6.778;2023-04-20T08:46:51;101294.94;;;11.70;46.53
22830;BME280;11581;51.250;6.778;2023-04-20T08:49:19;101295.94;;;11.69;46.65
22830;BME280;11581;51.250;6.778;2023-04-20T08:51:46;101283.66;;;11.66;46.83
22830;BME280;11581;51.250;6.778;2023-04-20T08:54:13;101283.81;;;11.65;46.77
22830;BME280;11581;51.250;6.778;2023-04-20T08:56:42;101273.13;;;11.55;47.12
22830;BME280;11581;51.250;6.778;2023-04-20T08:59:09;101281.28;;;11.63;46.85
22830;BME280;11581;51.250;6.778;2023-04-20T09:01:39;101281.53;;;11.60;47.01
22830;BME280;11581;51.250;6.778;2023-04-20T09:04:21;101280.28;;;11.55;48.36
22830;BME280;11581;51.250;6.778;2023-04-20T09:06:50;101290.41;;;11.61;47.54
22830;BME280;11581;51.250;6.778;2023-04-20T09:09:18;101284.94;;;11.62;47.29
22830;BME280;11581;51.250;6.778;2023-04-20T09:11:46;101156.44;;;10.89;47.75
22830;BME280;11581;51.250;6.778;2023-04-20T09:14:14;101295.06;;;11.68;47.74
22830;BME280;11581;51.250;6.778;2023-04-20T09:16:55;101253.16;;;11.50;49.38
22830;BME280;11581;51.250;6.778;2023-04-20T09:19:27;101288.59;;;11.71;48.46
22830;BME280;11581;51.250;6.778;2023-04-20T09:21:56;101260.19;;;11.51;49.05
22830;BME280;11581;51.250;6.778;2023-04-20T09:24:29;101121.03;;;10.58;50.92
22830;BME280;11581;51.250;6.778;2023-04-20T09:26:56;101285.19;;;11.59;49.18
22830;BME280;11581;51.250;6.778;2023-04-20T09:29:23;101266.63;;;11.38;49.91
22830;BME280;11581;51.250;6.778;2023-04-20T09:31:50;101237.69;;;11.24;50.09
22830;BME280;11581;51.250;6.778;2023-04-20T09:34:17;101228.28;;;11.20;50.73
22830;BME280;11581;51.250;6.778;2023-04-20T09:36:50;101287.63;;;11.62;51.29
22830;BME280;11581;51.250;6.778;2023-04-20T09:39:20;101277.22;;;11.69;51.80
22830;BME280;11581;51.250;6.778;2023-04-20T09:41:48;101219.13;;;11.52;51.95
22830;BME280;11581;51.250;6.778;2023-04-20T09:44:16;101284.97;;;12.27;51.62
22830;BME280;11581;51.250;6.778;2023-04-20T09:46:43;101273.13;;;12.66;51.07
22830;BME280;11581;51.250;6.778;2023-04-20T09:49:12;101231.03;;;12.86;49.89
22830;BME280;11581;51.250;6.778;2023-04-20T09:51:40;101270.19;;;13.49;49.11
22830;BME280;11581;51.250;6.778;2023-04-20T09:54:09;101154.41;;;13.20;48.02
22830;BME280;11581;51.250;6.778;2023-04-20T09:56:37;101281.09;;;14.34;47.36
22830;BME280;11581;51.250;6.778;2023-04-20T09:59:03;101270.75;;;14.72;46.84
22830;BME280;11581;51.250;6.778;2023-04-20T10:01:31;101260.44;;;15.09;45.46
22830;BME280;11581;51.250;6.778;2023-04-20T10:04:01;101247.63;;;15.45;44.80
22830;BME280;11581;51.250;6.778;2023-04-20T10:06:30;101260.91;;;15.79;44.29
22830;BME280;11581;51.250;6.778;2023-04-20T10:09:00;101248.06;;;16.13;43.03
22830;BME280;11581;51.250;6.778;2023-04-20T10:14:23;101237.97;;;16.77;40.99
22830;BME280;11581;51.250;6.778;2023-04-20T10:17:05;101220.34;;;16.97;39.98
22830;BME280;11581;51.250;6.778;2023-04-20T10:19:50;101220.44;;;17.12;39.43
22830;BME280;11581;51.250;6.778;2023-04-20T10:22:24;101230.97;;;17.21;40.32
22830;BME280;11581;51.250;6.778;2023-04-20T10:24:53;101211.44;;;17.19;39.55
22830;BME280;11581;51.250;6.778;2023-04-20T10:27:20;101210.19;;;17.30;39.14
22830;BME280;11581;51.250;6.778;2023-04-20T10:29:47;101213.34;;;17.33;38.74
22830;BME280;11581;51.250;6.778;2023-04-20T10:32:24;101209.78;;;17.41;37.27
22830;BME280;11581;51.250;6.778;2023-04-20T10:35:05;101215.59;;;17.52;37.05
22830;BME280;11581;51.250;6.778;2023-04-20T10:37:32;101212.06;;;17.52;37.02
22830;BME280;11581;51.250;6.778;2023-04-20T10:40:01;101224.78;;;17.43;37.01
22830;BME280;11581;51.250;6.778;2023-04-20T10:42:28;101184.69;;;17.18;37.01
22830;BME280;11581;51.250;6.778;2023-04-20T10:44:55;101164.38;;;16.85;37.32
22830;BME280;11581;51.250;6.778;2023-04-20T10:47:29;101225.06;;;16.95;37.53
22830;BME280;11581;51.250;6.778;2023-04-20T10:50:08;101223.06;;;16.89;37.80
22830;BME280;11581;51.250;6.778;2023-04-20T10:52:37;101224.34;;;16.79;38.13
22830;BME280;11581;51.250;6.778;2023-04-20T10:55:05;101189.41;;;16.55;38.67
22830;BME280;11581;51.250;6.778;2023-04-20T10:57:32;101198.28;;;16.63;38.79
22830;BME280;11581;51.250;6.778;2023-04-20T10:59:59;101148.44;;;16.37;38.51
22830;BME280;11581;51.250;6.778;2023-04-20T11:02:25;101211.50;;;16.81;38.52
22830;BME280;11581;51.250;6.778;2023-04-20T11:04:52;101199.06;;;16.80;38.24
22830;BME280;11581;51.250;6.778;2023-04-20T11:07:25;101156.59;;;16.59;38.33
22830;BME280;11581;51.250;6.778;2023-04-20T11:09:54;101176.47;;;16.89;38.25
22830;BME280;11581;51.250;6.778;2023-04-20T11:12:22;101178.16;;;17.12;39.04
22830;BME280;11581;51.250;6.778;2023-04-20T11:14:55;101193.59;;;17.41;37.55
22830;BME280;11581;51.250;6.778;2023-04-20T11:17:34;101184.72;;;17.77;37.17
22830;BME280;11581;51.250;6.778;2023-04-20T11:22:37;100965.75;;;16.79;36.22
22830;BME280;11581;51.250;6.778;2023-04-20T11:25:05;101084.31;;;17.53;35.63
22830;BME280;11581;51.250;6.778;2023-04-20T11:27:33;101134.00;;;17.73;35.09
22830;BME280;11581;51.250;6.778;2023-04-20T11:30:00;101189.91;;;17.79;34.93
22830;BME280;11581;51.250;6.778;2023-04-20T11:32:33;101178.03;;;17.51;34.74
22830;BME280;11581;51.250;6.778;2023-04-20T11:35:02;101183.66;;;17.19;35.29
22830;BME280;11581;51.250;6.778;2023-04-20T11:37:29;101161.75;;;16.69;35.72
22830;BME280;11581;51.250;6.778;2023-04-20T11:40:01;101163.53;;;16.46;36.38
22830;BME280;11581;51.250;6.778;2023-04-20T11:42:29;101174.72;;;16.27;36.53
22830;BME280;11581;51.250;6.778;2023-04-20T11:44:55;101180.50;;;16.08;36.80
22830;BME280;11581;51.250;6.778;2023-04-20T11:47:22;101180.38;;;15.85;37.32
22830;BME280;11581;51.250;6.778;2023-04-20T11:49:48;101175.34;;;15.66;37.68
22830;BME280;11581;51.250;6.778;2023-04-20T11:52:15;101175.53;;;15.48;38.15
22830;BME280;11581;51.250;6.778;2023-04-20T11:54:41;101180.94;;;15.40;38.29
22830;BME280;11581;51.250;6.778;2023-04-20T11:57:08;101179.72;;;15.27;38.47
22830;BME280;11581;51.250;6.778;2023-04-20T11:59:34;101187.94;;;15.25;38.50
22830;BME280;11581;51.250;6.778;2023-04-20T12:02:01;101166.09;;;15.12;38.29
22830;BME280;11581;51.250;6.778;2023-04-20T12:04:29;101177.53;;;15.14;38.15
22830;BME280;11581;51.250;6.778;2023-04-20T12:06:57;101145.91;;;14.84;38.11
22830;BME280;11581;51.250;6.778;2023-04-20T12:09:24;101174.31;;;15.03;38.23
22830;BME280;11581;51.250;6.778;2023-04-20T12:11:51;101159.19;;;15.02;38.51
22830;BME280;11581;51.250;6.778;2023-04-20T12:14:18;101141.25;;;14.94;38.50
22830;BME280;11581;51.250;6.778;2023-04-20T12:16:44;101081.81;;;14.65;38.23
22830;BME280;11581;51.250;6.778;2023-04-20T12:19:11;101122.59;;;15.01;37.85
22830;BME280;11581;51.250;6.778;2023-04-20T12:21:37;101179.59;;;15.36;37.37
22830;BME280;11581;51.250;6.778;2023-04-20T12:24:04;101183.09;;;15.37;36.92
22830;BME280;11581;51.250;6.778;2023-04-20T12:26:32;100969.97;;;14.08;36.84
22830;BME280;11581;51.250;6.778;2023-04-20T12:29:00;101176.84;;;15.28;36.87
22830;BME280;11581;51.250;6.778;2023-04-20T12:31:27;101150.31;;;15.09;37.10
22830;BME280;11581;51.250;6.778;2023-04-20T12:33:53;101150.31;;;15.09;36.95
22830;BME280;11581;51.250;6.778;2023-04-20T12:36:20;101125.28;;;15.01;37.26
22830;BME280;11581;51.250;6.778;2023-04-20T12:38:49;101175.00;;;15.21;37.21
22830;BME280;11581;51.250;6.778;2023-04-20T12:41:16;101173.31;;;15.20;37.07
22830;BME280;11581;51.250;6.778;2023-04-20T12:43:43;101168.13;;;15.18;36.88
22830;BME280;11581;51.250;6.778;2023-04-20T12:46:09;101172.47;;;15.19;36.95
22830;BME280;11581;51.250;6.778;2023-04-20T12:48:36;101173.84;;;15.23;36.82
22830;BME280;11581;51.250;6.778;2023-04-20T12:51:02;101166.63;;;15.32;36.81
22830;BME280;11581;51.250;6.778;2023-04-20T12:53:29;101134.53;;;15.30;37.37
22830;BME280;11581;51.250;6.778;2023-04-20T12:55:55;101118.09;;;15.49;37.89
22830;BME280;11581;51.250;6.778;2023-04-20T12:58:22;101167.34;;;16.13;37.50